Terminal Aerodrome Forecast
Issued by NWS Wichita, KS

Home | Current Version | Previous Version | Text Only | Print | Product List | Glossary On
Versions: 1 2 3 4 5 6 7 8 9 10 11 12 13 14 15 16 17
000
FTUS43 KICT 051131
TAFICT
TAF
KICT 051131Z 0512/0612 16009KT P6SM SCT080 SCT250
     FM051600 19018G30KT P6SM SCT060
     FM060200 16012G18KT P6SM SCT030=

USA.gov is the U.S. government's official web portal to all federal, state and local government web resources and services.